New London, MN (56273)

8:17 PM CST on February 11, 2016 (GMT -0600)
Sibley | | Change Station
CLOSE
Current Station
Personal Weather Station
Location: New London, MN
Elevation: 1260 ft
Nearby Weather Stations

Elev 1260 ft 45.33 °N, 95.01 °W | Updated 2 minutes ago

Overcast
Overcast
13.6 °F
Feels Like 14 °F
N
0.0
Wind Variable Wind from SW

Today
High -- | Low -- °F
--% Chance of Precip.
Yesterday
High -- | Low -- °F
Precip. -- in
Pressure 30.22 in
Visibility 5.0 miles
Clouds Scattered Clouds 1300 ft
Scattered Clouds 2100 ft
Overcast 3500 ft
Windchill 14 °F
Dew Point 11 °F
Humidity 88%
Rainfall 0.00 in
Snow Depth Not available.
7:27 AM 5:40 PM
Waxing Crescent, 16% visible
METAR KPEX 120213Z AUTO 26003KT 5SM -SN SCT013 SCT021 OVC035 M10/M12 A3022 RMK AO2 T10971120
Pressure 30.22 in
Visibility 5.0 miles
Clouds Scattered Clouds 1300 ft
Scattered Clouds 2100 ft
Overcast 3500 ft
Windchill 14 °F
Dew Point 11 °F
Humidity 88%
Rainfall 0.00 in
Snow Depth Not available.
7:27 AM 5:40 PM
Waxing Crescent, 16% visible
METAR KPEX 120213Z AUTO 26003KT 5SM -SN SCT013 SCT021 OVC035 M10/M12 A3022 RMK AO2 T10971120

10-Day Weather Forecast

Almanac

Astronomy

Feb. 11, 2016 Rise Set
Actual Time
Civil Twilight
Nautical Twilight
Astronomical Twilight
Moon
Length of Visible Light
Length of Day
Tomorrow will be .
, % of the Moon is Illuminated

Today's Extremes

State Highs State Lows

Community

WunderPhotos

Upload Photos

1,892,225 photos uploaded!

WunderBlog® & News

Nearby

Air Quality

  Air Quality AQ Index Pollutant
Not available.

Snow Depth

Station Depth Elevation

Earthquake Activity

City Distance Mag. Time & Date
Minimum magnitude displayed is 2.5.

Coastal Water Temperatures

Place Temperature

Stations

Nearby Weather Stations

Station Location Temp. Windchill Dew Point Humidity Wind Precip. Elev Updated Type
                   

Watches & Warnings

There are currently no watches in effect.